Time;durP1;ratioP1;P1;durP2;ratioP2;P2;SDS_P1;SDS_P2;PMS_P1;PMS_P2;Temp;Humidity;BMP_temperature;BMP_pressure;BME280_temperature;BME280_humidity;BME280_pressure;Samples;Min_cycle;Max_cycle;Signal;HPM_P1;HPM_P2
2022/10/29 00:00:03;;;;;;;;;;;;;;;;;;351326;28;975;-65
2022/10/29 00:00:13;;;;;;;;;;;;;;;;;;351272;28;989;-66
2022/10/29 00:00:24;;;;;;;;;;;;;;;;;;351344;28;838;-65
2022/10/29 00:00:34;;;;;;;;;;;;;;;;;;351384;28;979;-66
2022/10/29 00:00:47;;;;;;;;;;;;;;;;;;351428;28;852;-65
2022/10/29 00:00:57;;;;;;;;;;;;;;;;;;351329;28;1022;-65
2022/10/29 00:01:07;;;;;;;;;;;;;;;;;;351394;28;900;-65
2022/10/29 00:01:18;;;;;;;;;;;;;;;;;;351406;28;798;-65
2022/10/29 00:01:28;;;;;;;;;;;;;;;;;;351381;28;979;-65
2022/10/29 00:01:38;;;;;;;;;;;;;;;;;;351436;28;832;-65
2022/10/29 00:01:48;;;;;;;;;;;;;;;;;;351360;28;971;-65
2022/10/29 00:01:58;;;;;;;;;;;;;;;;;;351414;28;1062;-65
2022/10/29 00:02:09;;;;;;;;;;;;;;;;;;351413;28;832;-66
2022/10/29 00:02:19;;;;;;;;;;;;;;;;;;351348;28;976;-65
2022/10/29 00:02:29;;;;;;;;;;;;;;;;;;351398;28;849;-65
2022/10/29 00:02:39;;;;;;;;;;;;;;;;;;351375;28;780;-65
2022/10/29 00:02:49;;;;;;;;;;;;;;;;;;351412;28;952;-65
2022/10/29 00:03:00;;;;;;;;;;;;;;;;;;351407;28;905;-65
2022/10/29 00:03:10;;;;;;;;;;;;;;;;;;351395;28;852;-65
2022/10/29 00:03:21;;;;;;;;;;;;;;;;;;351382;28;1115;-65
2022/10/29 00:03:31;;;;;;;;;;;;;;;;;;351369;28;973;-66
2022/10/29 00:03:41;;;;;;;;;;;;;;;;;;351434;28;889;-65
2022/10/29 00:03:51;;;;;;;;;;;;;;;;;;351413;28;924;-66
2022/10/29 00:04:02;;;;;;;;;;;;;;;;;;351351;28;1022;-65
2022/10/29 00:04:12;;;;;;;;;;;;;;;;;;351375;28;908;-65
2022/10/29 00:04:22;;;;;;;;;;;;;;;;;;351263;28;1139;-66
2022/10/29 00:04:32;;;;;;;;;;;;;;;;;;351346;28;1012;-65
2022/10/29 00:04:43;;;;;;;;;;;;;;;;;;351385;28;968;-65
2022/10/29 00:04:53;;;;;;;;;;;;;;;;;;351413;28;848;-65
2022/10/29 00:05:03;;;;;;;;;;;;;;;;;;351415;28;888;-66
2022/10/29 00:05:14;;;;;;;;;;;;;;;;;;351343;28;809;-66
2022/10/29 00:05:24;;;;;;;;;;;;;;;;;;351410;28;968;-65
2022/10/29 00:05:34;;;;;;;;;;;;;;;;;;351220;28;975;-65
2022/10/29 00:05:53;;;;;;;;;;;;;;;;;;351209;28;983;-66
2022/10/29 00:06:04;;;;;;;;;;;;;;;;;;351273;28;849;-65
2022/10/29 00:06:14;;;;;;;;;;;;;;;;;;351114;28;902;-65
2022/10/29 00:06:25;;;;;;;;;;;;;;;;;;351229;28;929;-65
2022/10/29 00:06:35;;;;;;;;;;;;;;;;;;351345;28;912;-65
2022/10/29 00:06:46;;;;;;;;;;;;;;;;;;351351;28;933;-65
2022/10/29 00:06:57;;;;;;;;;;;;;;;;;;351364;28;939;-65
2022/10/29 00:07:07;;;;;;;;;;;;;;;;;;351375;28;917;-65
2022/10/29 00:07:17;;;;;;;;;;;;;;;;;;351403;28;817;-66
2022/10/29 00:07:27;;;;;;;;;;;;;;;;;;351416;28;849;-66
2022/10/29 00:07:37;;;;;;;;;;;;;;;;;;351450;28;980;-65
2022/10/29 00:07:48;;;;;;;;;;;;;;;;;;351374;28;879;-66
2022/10/29 00:07:59;;;;;;;;;;;;;;;;;;351404;28;802;-65
2022/10/29 00:08:09;;;;;;;;;;;;;;;;;;351333;28;912;-65
2022/10/29 00:08:19;;;;;;;;;;;;;;;;;;351390;28;967;-65
2022/10/29 00:08:30;;;;;;;;;;;;;;;;;;351374;28;870;-66
2022/10/29 00:08:41;;;;;;;;;;;;;;;;;;351347;28;912;-65
2022/10/29 00:08:51;;;;;;;;;;;;;;;;;;351344;28;964;-65
2022/10/29 00:09:01;;;;;;;;;;;;;;;;;;351415;28;790;-65
2022/10/29 00:09:11;;;;;;;;;;;;;;;;;;351443;28;806;-65
2022/10/29 00:09:21;;;;;;;;;;;;;;;;;;351338;28;991;-65
2022/10/29 00:09:32;;;;;;;;;;;;;;;;;;351441;28;841;-65
2022/10/29 00:09:42;;;;;;;;;;;;;;;;;;351391;28;960;-65
2022/10/29 00:09:52;;;;;;;;;;;;;;;;;;351371;28;890;-66
2022/10/29 00:10:02;;;;;;;;;;;;;;;;;;351402;28;781;-65
2022/10/29 00:10:12;;;;;;;;;;;;;;;;;;351390;28;921;-66
2022/10/29 00:10:23;;;;;;;;;;;;;;;;;;351395;28;842;-65
2022/10/29 00:10:33;;;;;;;;;;;;;;;;;;351322;28;916;-65
2022/10/29 00:10:43;;;;;;;;;;;;;;;;;;351321;28;1008;-65
2022/10/29 00:10:53;;;;;;;;;;;;;;;;;;351410;28;908;-65
2022/10/29 00:11:08;;;;;;;;;;;;;;;;;;351375;28;913;-65
2022/10/29 00:11:19;;;;;;;;;;;;;;;;;;351307;28;1067;-65
2022/10/29 00:11:30;;;;;;;;;;;;;;;;;;351327;28;1980;-65
2022/10/29 00:11:40;;;;;;;;;;;;;;;;;;351348;28;1099;-65
2022/10/29 00:11:50;;;;;;;;;;;;;;;;;;351370;28;999;-65
2022/10/29 00:12:00;;;;;;;;;;;;;;;;;;351368;28;845;-65
2022/10/29 00:12:10;;;;;;;;;;;;;;;;;;351366;28;971;-65
2022/10/29 00:12:21;;;;;;;;;;;;;;;;;;351310;28;800;-65
2022/10/29 00:12:31;;;;;;;;;;;;;;;;;;351400;28;992;-65
2022/10/29 00:12:41;;;;;;;;;;;;;;;;;;351308;28;911;-66
2022/10/29 00:12:51;;;;;;;;;;;;;;;;;;351370;28;920;-65
2022/10/29 00:13:02;;;;;;;;;;;;;;;;;;351361;28;987;-65
2022/10/29 00:13:12;;;;;;;;;;;;;;;;;;351388;28;775;-65
2022/10/29 00:13:22;;;;;;;;;;;;;;;;;;351327;28;975;-66
2022/10/29 00:13:33;;;;;;;;;;;;;;;;;;351398;28;932;-66
2022/10/29 00:13:44;;;;;;;;;;;;;;;;;;351385;28;924;-65
2022/10/29 00:13:57;;;;;;;;;;;;;;;;;;350088;28;1410;-65
2022/10/29 00:14:07;;;;;;;;;;;;;;;;;;351018;28;960;-65
2022/10/29 00:14:17;;;;;;;;;;;;;;;;;;351231;28;1016;-65
2022/10/29 00:14:27;;;;;;;;;;;;;;;;;;351346;28;997;-65
2022/10/29 00:14:38;;;;;;;;;;;;;;;;;;351381;28;941;-65
2022/10/29 00:14:48;;;;;;;;;;;;;;;;;;351278;28;806;-65
2022/10/29 00:14:58;;;;;;;;;;;;;;;;;;351383;28;917;-65
2022/10/29 00:15:09;;;;;;;;;;;;;;;;;;351396;28;872;-66
2022/10/29 00:15:19;;;;;;;;;;;;;;;;;;351410;28;1004;-65
2022/10/29 00:15:29;;;;;;;;;;;;;;;;;;351325;28;1143;-66
2022/10/29 00:15:39;;;;;;;;;;;;;;;;;;351377;28;836;-66
2022/10/29 00:15:50;;;;;;;;;;;;;;;;;;351424;28;928;-65
2022/10/29 00:16:04;;;;;;;;;;;;;;;;;;350547;28;1327;-65
2022/10/29 00:16:15;;;;;;;;;;;;;;;;;;351423;28;836;-65
2022/10/29 00:16:27;;;;;;;;;;;;;;;;;;351324;28;976;-66
2022/10/29 00:16:38;;;;;;;;;;;;;;;;;;351369;28;1022;-65
2022/10/29 00:16:48;;;;;;;;;;;;;;;;;;351269;28;925;-66
2022/10/29 00:16:59;;;;;;;;;;;;;;;;;;351373;28;873;-65
2022/10/29 00:17:09;;;;;;;;;;;;;;;;;;351421;28;777;-66
2022/10/29 00:17:19;;;;;;;;;;;;;;;;;;351307;28;928;-65
2022/10/29 00:17:29;;;;;;;;;;;;;;;;;;351377;28;853;-65
2022/10/29 00:17:39;;;;;;;;;;;;;;;;;;351419;28;936;-65
2022/10/29 00:17:50;;;;;;;;;;;;;;;;;;351199;28;995;-66
2022/10/29 00:18:00;;;;;;;;;;;;;;;;;;351394;28;808;-65
2022/10/29 00:18:10;;;;;;;;;;;;;;;;;;351202;28;1016;-66
2022/10/29 00:18:20;;;;;;;;;;;;;;;;;;351342;28;863;-65
2022/10/29 00:18:31;;;;;;;;;;;;;;;;;;351389;28;881;-65
2022/10/29 00:18:41;;;;;;;;;;;;;;;;;;351383;28;802;-66
2022/10/29 00:18:53;;;;;;;;;;;;;;;;;;351328;28;908;-65
2022/10/29 00:19:03;;;;;;;;;;;;;;;;;;351361;28;909;-65
2022/10/29 00:19:13;;;;;;;;;;;;;;;;;;351359;28;933;-65
2022/10/29 00:19:24;;;;;;;;;;;;;;;;;;351330;28;933;-66
2022/10/29 00:19:34;;;;;;;;;;;;;;;;;;351985;28;1361;-65
2022/10/29 00:19:44;;;;;;;;;;;;;;;;;;352768;28;917;-65
2022/10/29 00:19:54;;;;;;;;;;;;;;;;;;352707;28;1015;-65
2022/10/29 00:20:05;;;;;;;;;;;;;;;;;;352793;28;856;-65
2022/10/29 00:20:16;;;;;;;;;;;;;;;;;;352816;28;932;-65
2022/10/29 00:20:26;;;;;;;;;;;;;;;;;;352798;28;1023;-65
2022/10/29 00:20:37;;;;;;;;;;;;;;;;;;352749;28;861;-66
2022/10/29 00:20:47;;;;;;;;;;;;;;;;;;352549;28;995;-65
2022/10/29 00:21:05;;;;;;;;;;;;;;;;;;352776;28;1007;-65
2022/10/29 00:21:17;;;;;;;;;;;;;;;;;;352792;28;972;-65
2022/10/29 00:21:27;;;;;;;;;;;;;;;;;;352783;28;991;-65
2022/10/29 00:21:39;;;;;;;;;;;;;;;;;;352695;28;881;-66
2022/10/29 00:21:50;;;;;;;;;;;;;;;;;;352759;28;975;-65
2022/10/29 00:22:00;;;;;;;;;;;;;;;;;;352787;28;964;-65
2022/10/29 00:22:10;;;;;;;;;;;;;;;;;;352763;28;868;-65
2022/10/29 00:22:20;;;;;;;;;;;;;;;;;;352779;28;917;-66
2022/10/29 00:22:31;;;;;;;;;;;;;;;;;;352702;28;1004;-65
2022/10/29 00:22:41;;;;;;;;;;;;;;;;;;352715;28;1004;-65
2022/10/29 00:22:52;;;;;;;;;;;;;;;;;;352787;28;900;-65
2022/10/29 00:23:02;;;;;;;;;;;;;;;;;;352793;28;849;-66
2022/10/29 00:23:12;;;;;;;;;;;;;;;;;;352692;28;1059;-65
2022/10/29 00:23:22;;;;;;;;;;;;;;;;;;352749;28;876;-66
2022/10/29 00:23:33;;;;;;;;;;;;;;;;;;352783;28;908;-66
2022/10/29 00:23:44;;;;;;;;;;;;;;;;;;352735;28;944;-65
2022/10/29 00:23:55;;;;;;;;;;;;;;;;;;352738;28;971;-65
2022/10/29 00:24:07;;;;;;;;;;;;;;;;;;351027;28;2007;-66
2022/10/29 00:24:17;;;;;;;;;;;;;;;;;;352761;28;894;-65
2022/10/29 00:24:27;;;;;;;;;;;;;;;;;;352728;28;925;-65
2022/10/29 00:24:38;;;;;;;;;;;;;;;;;;352560;28;1133;-66
2022/10/29 00:24:48;;;;;;;;;;;;;;;;;;352762;28;928;-65
2022/10/29 00:24:58;;;;;;;;;;;;;;;;;;352816;28;928;-65
2022/10/29 00:25:08;;;;;;;;;;;;;;;;;;352726;28;920;-66
2022/10/29 00:25:18;;;;;;;;;;;;;;;;;;352786;28;781;-65
2022/10/29 00:25:29;;;;;;;;;;;;;;;;;;352759;28;897;-65
2022/10/29 00:25:39;;;;;;;;;;;;;;;;;;352788;28;963;-65
2022/10/29 00:25:49;;;;;;;;;;;;;;;;;;352721;28;1087;-65
2022/10/29 00:26:00;;;;;;;;;;;;;;;;;;352767;28;920;-65
2022/10/29 00:26:11;;;;;;;;;;;;;;;;;;352737;28;1016;-65
2022/10/29 00:26:21;;;;;;;;;;;;;;;;;;352685;28;845;-65
2022/10/29 00:26:32;;;;;;;;;;;;;;;;;;352823;28;896;-65
2022/10/29 00:26:42;;;;;;;;;;;;;;;;;;352764;28;805;-65
2022/10/29 00:26:52;;;;;;;;;;;;;;;;;;352778;28;987;-65
2022/10/29 00:27:03;;;;;;;;;;;;;;;;;;352748;28;805;-66
2022/10/29 00:27:13;;;;;;;;;;;;;;;;;;352747;28;971;-65
2022/10/29 00:27:23;;;;;;;;;;;;;;;;;;352764;28;854;-65
2022/10/29 00:27:33;;;;;;;;;;;;;;;;;;352742;28;1043;-65
2022/10/29 00:27:44;;;;;;;;;;;;;;;;;;352723;28;984;-65
2022/10/29 00:27:54;;;;;;;;;;;;;;;;;;352817;28;1030;-65
2022/10/29 00:28:05;;;;;;;;;;;;;;;;;;352788;28;979;-65
2022/10/29 00:28:15;;;;;;;;;;;;;;;;;;352776;28;932;-65
2022/10/29 00:28:25;;;;;;;;;;;;;;;;;;352735;28;886;-65
2022/10/29 00:28:36;;;;;;;;;;;;;;;;;;352775;28;821;-65
2022/10/29 00:28:46;;;;;;;;;;;;;;;;;;352441;28;1405;-65
2022/10/29 00:28:57;;;;;;;;;;;;;;;;;;350011;28;1515;-65
2022/10/29 00:29:07;;;;;;;;;;;;;;;;;;351310;28;903;-65
2022/10/29 00:29:17;;;;;;;;;;;;;;;;;;351289;28;1035;-65
2022/10/29 00:29:27;;;;;;;;;;;;;;;;;;351354;28;968;-66
2022/10/29 00:29:38;;;;;;;;;;;;;;;;;;351394;28;1033;-65
2022/10/29 00:29:48;;;;;;;;;;;;;;;;;;351285;28;991;-65
2022/10/29 00:29:58;;;;;;;;;;;;;;;;;;351381;28;909;-65
2022/10/29 00:30:09;;;;;;;;;;;;;;;;;;351397;28;782;-65
2022/10/29 00:30:19;;;;;;;;;;;;;;;;;;351351;28;921;-66
2022/10/29 00:30:29;;;;;;;;;;;;;;;;;;351400;28;797;-65
2022/10/29 00:30:39;;;;;;;;;;;;;;;;;;350301;28;1359;-65
2022/10/29 00:30:49;;;;;;;;;;;;;;;;;;349933;28;916;-65
2022/10/29 00:31:04;;;;;;;;;;;;;;;;;;350020;28;830;-65
2022/10/29 00:31:15;;;;;;;;;;;;;;;;;;349977;28;881;-65
2022/10/29 00:31:25;;;;;;;;;;;;;;;;;;349827;28;1918;-66
2022/10/29 00:31:35;;;;;;;;;;;;;;;;;;349955;28;897;-65
2022/10/29 00:31:48;;;;;;;;;;;;;;;;;;349967;28;813;-65
2022/10/29 00:31:58;;;;;;;;;;;;;;;;;;350867;28;1230;-65
2022/10/29 00:32:08;;;;;;;;;;;;;;;;;;351387;28;992;-65
2022/10/29 00:32:19;;;;;;;;;;;;;;;;;;351287;28;1030;-66
2022/10/29 00:32:29;;;;;;;;;;;;;;;;;;351408;28;1088;-65
2022/10/29 00:32:39;;;;;;;;;;;;;;;;;;351350;28;994;-65
2022/10/29 00:32:49;;;;;;;;;;;;;;;;;;351398;28;972;-65
2022/10/29 00:32:59;;;;;;;;;;;;;;;;;;351374;28;868;-65
2022/10/29 00:33:10;;;;;;;;;;;;;;;;;;351339;28;991;-66
2022/10/29 00:33:21;;;;;;;;;;;;;;;;;;351285;28;1145;-65
2022/10/29 00:33:31;;;;;;;;;;;;;;;;;;351356;28;991;-65
2022/10/29 00:33:41;;;;;;;;;;;;;;;;;;351297;28;1015;-65
2022/10/29 00:33:52;;;;;;;;;;;;;;;;;;351331;28;1003;-65
2022/10/29 00:34:03;;;;;;;;;;;;;;;;;;351336;28;984;-65
2022/10/29 00:34:13;;;;;;;;;;;;;;;;;;351390;28;849;-65
2022/10/29 00:34:23;;;;;;;;;;;;;;;;;;351381;28;967;-65
2022/10/29 00:34:33;;;;;;;;;;;;;;;;;;351405;28;925;-65
2022/10/29 00:34:43;;;;;;;;;;;;;;;;;;351388;28;806;-65
2022/10/29 00:34:54;;;;;;;;;;;;;;;;;;351337;28;1008;-65
2022/10/29 00:35:04;;;;;;;;;;;;;;;;;;351377;28;924;-65
2022/10/29 00:35:14;;;;;;;;;;;;;;;;;;351345;28;975;-65
2022/10/29 00:35:25;;;;;;;;;;;;;;;;;;351398;28;877;-66
2022/10/29 00:35:35;;;;;;;;;;;;;;;;;;351317;28;904;-65
2022/10/29 00:35:55;;;;;;;;;;;;;;;;;;351342;28;926;-66
2022/10/29 00:36:08;;;;;;;;;;;;;;;;;;351395;28;932;-65
2022/10/29 00:36:21;;;;;;;;;;;;;;;;;;351324;28;979;-65
2022/10/29 00:36:31;;;;;;;;;;;;;;;;;;351345;28;1205;-65
2022/10/29 00:36:41;;;;;;;;;;;;;;;;;;351376;28;967;-65
2022/10/29 00:36:51;;;;;;;;;;;;;;;;;;351297;28;998;-66
2022/10/29 00:37:02;;;;;;;;;;;;;;;;;;351382;28;820;-65
2022/10/29 00:37:12;;;;;;;;;;;;;;;;;;351408;28;754;-65
2022/10/29 00:37:22;;;;;;;;;;;;;;;;;;351329;28;794;-65
2022/10/29 00:37:33;;;;;;;;;;;;;;;;;;351390;28;850;-65
2022/10/29 00:37:43;;;;;;;;;;;;;;;;;;351297;28;908;-65
2022/10/29 00:37:54;;;;;;;;;;;;;;;;;;351292;28;928;-65
2022/10/29 00:38:04;;;;;;;;;;;;;;;;;;351361;28;912;-66
2022/10/29 00:38:14;;;;;;;;;;;;;;;;;;351348;28;1066;-65
2022/10/29 00:38:25;;;;;;;;;;;;;;;;;;351377;28;916;-65
2022/10/29 00:38:35;;;;;;;;;;;;;;;;;;350384;28;1359;-66
2022/10/29 00:38:45;;;;;;;;;;;;;;;;;;350969;28;887;-65
2022/10/29 00:38:56;;;;;;;;;;;;;;;;;;351399;28;782;-65
2022/10/29 00:39:06;;;;;;;;;;;;;;;;;;351290;28;972;-65
2022/10/29 00:39:16;;;;;;;;;;;;;;;;;;351355;28;899;-65
2022/10/29 00:39:28;;;;;;;;;;;;;;;;;;351374;28;844;-65
2022/10/29 00:39:38;;;;;;;;;;;;;;;;;;351261;28;1012;-65
2022/10/29 00:39:48;;;;;;;;;;;;;;;;;;351309;28;857;-65
2022/10/29 00:39:58;;;;;;;;;;;;;;;;;;351342;28;912;-65
2022/10/29 00:40:09;;;;;;;;;;;;;;;;;;351377;28;821;-65
2022/10/29 00:40:19;;;;;;;;;;;;;;;;;;351350;28;896;-65
2022/10/29 00:40:30;;;;;;;;;;;;;;;;;;350501;28;1330;-65
2022/10/29 00:40:40;;;;;;;;;;;;;;;;;;350546;28;1422;-66
2022/10/29 00:40:50;;;;;;;;;;;;;;;;;;351344;28;897;-65
2022/10/29 00:41:01;;;;;;;;;;;;;;;;;;351344;28;805;-65
2022/10/29 00:41:13;;;;;;;;;;;;;;;;;;351365;28;916;-65
2022/10/29 00:41:25;;;;;;;;;;;;;;;;;;351256;28;1043;-65
2022/10/29 00:41:35;;;;;;;;;;;;;;;;;;351350;28;1030;-65
2022/10/29 00:41:45;;;;;;;;;;;;;;;;;;350542;28;1363;-65
2022/10/29 00:41:56;;;;;;;;;;;;;;;;;;351313;28;988;-65
2022/10/29 00:42:12;;;;;;;;;;;;;;;;;;351384;28;767;-65
2022/10/29 00:42:22;;;;;;;;;;;;;;;;;;351356;28;1007;-65
2022/10/29 00:42:32;;;;;;;;;;;;;;;;;;351396;28;826;-65
2022/10/29 00:42:43;;;;;;;;;;;;;;;;;;351348;28;964;-65
2022/10/29 00:42:53;;;;;;;;;;;;;;;;;;349866;28;917;-65
2022/10/29 00:43:13;;;;;;;;;;;;;;;;;;349822;28;976;-65
2022/10/29 00:43:24;;;;;;;;;;;;;;;;;;349829;28;996;-66
2022/10/29 00:43:36;;;;;;;;;;;;;;;;;;349849;28;924;-65
2022/10/29 00:43:50;;;;;;;;;;;;;;;;;;349865;28;995;-65
2022/10/29 00:44:23;;;;;;;;;;;;;;;;;;349734;28;984;-65
2022/10/29 00:44:34;;;;;;;;;;;;;;;;;;349793;28;1085;-66
2022/10/29 00:44:44;;;;;;;;;;;;;;;;;;349900;28;860;-66
2022/10/29 00:44:55;;;;;;;;;;;;;;;;;;351364;28;892;-65
2022/10/29 00:45:05;;;;;;;;;;;;;;;;;;351344;28;865;-65
2022/10/29 00:45:18;;;;;;;;;;;;;;;;;;351396;28;956;-65
2022/10/29 00:45:28;;;;;;;;;;;;;;;;;;351353;28;984;-65
2022/10/29 00:45:41;;;;;;;;;;;;;;;;;;351392;28;825;-65
2022/10/29 00:45:53;;;;;;;;;;;;;;;;;;351362;28;932;-65
2022/10/29 00:46:06;;;;;;;;;;;;;;;;;;351244;28;818;-65
2022/10/29 00:46:34;;;;;;;;;;;;;;;;;;351263;28;902;-65
2022/10/29 00:46:46;;;;;;;;;;;;;;;;;;351357;28;983;-65
2022/10/29 00:47:02;;;;;;;;;;;;;;;;;;351323;28;869;-65
2022/10/29 00:47:30;;;;;;;;;;;;;;;;;;351360;28;869;-65
2022/10/29 00:47:40;;;;;;;;;;;;;;;;;;351283;28;944;-65
2022/10/29 00:47:52;;;;;;;;;;;;;;;;;;351364;28;960;-65
2022/10/29 00:48:02;;;;;;;;;;;;;;;;;;351345;28;1104;-65
2022/10/29 00:48:12;;;;;;;;;;;;;;;;;;351275;28;787;-66
2022/10/29 00:48:23;;;;;;;;;;;;;;;;;;351271;28;916;-65
2022/10/29 00:48:35;;;;;;;;;;;;;;;;;;351297;28;952;-65
2022/10/29 00:48:47;;;;;;;;;;;;;;;;;;351348;28;913;-65
2022/10/29 00:48:57;;;;;;;;;;;;;;;;;;351308;28;1248;-65
2022/10/29 00:49:08;;;;;;;;;;;;;;;;;;351300;28;1118;-65
2022/10/29 00:49:19;;;;;;;;;;;;;;;;;;351372;28;770;-65
2022/10/29 00:49:31;;;;;;;;;;;;;;;;;;351353;28;845;-65
2022/10/29 00:49:42;;;;;;;;;;;;;;;;;;351331;28;909;-65
2022/10/29 00:49:56;;;;;;;;;;;;;;;;;;351288;28;924;-65
2022/10/29 00:50:12;;;;;;;;;;;;;;;;;;351325;28;865;-66
2022/10/29 00:50:23;;;;;;;;;;;;;;;;;;351348;28;964;-65
2022/10/29 00:50:34;;;;;;;;;;;;;;;;;;351236;28;1017;-65
2022/10/29 00:50:45;;;;;;;;;;;;;;;;;;351368;28;806;-65
2022/10/29 00:50:57;;;;;;;;;;;;;;;;;;351364;28;831;-65
2022/10/29 00:51:09;;;;;;;;;;;;;;;;;;351299;28;925;-65
2022/10/29 00:51:20;;;;;;;;;;;;;;;;;;351316;28;1115;-65
2022/10/29 00:51:31;;;;;;;;;;;;;;;;;;351240;28;1918;-65
2022/10/29 00:51:41;;;;;;;;;;;;;;;;;;351369;28;995;-65
2022/10/29 00:51:51;;;;;;;;;;;;;;;;;;351334;28;940;-65
2022/10/29 00:52:02;;;;;;;;;;;;;;;;;;351280;28;1087;-66
2022/10/29 00:52:14;;;;;;;;;;;;;;;;;;351295;28;980;-65
2022/10/29 00:52:27;;;;;;;;;;;;;;;;;;351302;28;936;-65
2022/10/29 00:52:39;;;;;;;;;;;;;;;;;;351383;28;865;-65
2022/10/29 00:52:51;;;;;;;;;;;;;;;;;;351259;28;1047;-65
2022/10/29 00:53:01;;;;;;;;;;;;;;;;;;351372;28;932;-65
2022/10/29 00:53:11;;;;;;;;;;;;;;;;;;351296;28;944;-65
2022/10/29 00:53:24;;;;;;;;;;;;;;;;;;351349;28;881;-65
2022/10/29 00:53:37;;;;;;;;;;;;;;;;;;351307;28;781;-65
2022/10/29 00:53:50;;;;;;;;;;;;;;;;;;351373;28;988;-65
2022/10/29 00:54:01;;;;;;;;;;;;;;;;;;351266;28;1008;-65
2022/10/29 00:54:15;;;;;;;;;;;;;;;;;;350860;28;2009;-66
2022/10/29 00:54:27;;;;;;;;;;;;;;;;;;352640;28;932;-65
2022/10/29 00:54:39;;;;;;;;;;;;;;;;;;352739;28;932;-65
2022/10/29 00:54:50;;;;;;;;;;;;;;;;;;352769;28;916;-65
2022/10/29 00:55:02;;;;;;;;;;;;;;;;;;352714;28;944;-66
2022/10/29 00:55:14;;;;;;;;;;;;;;;;;;352771;28;774;-65
2022/10/29 00:55:24;;;;;;;;;;;;;;;;;;352731;28;979;-65
2022/10/29 00:55:35;;;;;;;;;;;;;;;;;;352733;28;1136;-65
2022/10/29 00:55:45;;;;;;;;;;;;;;;;;;352676;28;928;-65
2022/10/29 00:55:56;;;;;;;;;;;;;;;;;;352770;28;932;-65
2022/10/29 00:56:06;;;;;;;;;;;;;;;;;;351588;28;1971;-65
2022/10/29 00:56:17;;;;;;;;;;;;;;;;;;352705;28;932;-65
2022/10/29 00:56:28;;;;;;;;;;;;;;;;;;351679;28;1347;-65
2022/10/29 00:56:40;;;;;;;;;;;;;;;;;;350409;28;1808;-65
2022/10/29 00:56:52;;;;;;;;;;;;;;;;;;351351;28;992;-66
2022/10/29 00:57:05;;;;;;;;;;;;;;;;;;351240;28;1075;-65
2022/10/29 00:57:19;;;;;;;;;;;;;;;;;;351400;28;785;-65
2022/10/29 00:57:33;;;;;;;;;;;;;;;;;;351313;28;809;-65
2022/10/29 00:57:47;;;;;;;;;;;;;;;;;;351372;28;825;-66
2022/10/29 00:57:59;;;;;;;;;;;;;;;;;;351344;28;936;-65
2022/10/29 00:58:10;;;;;;;;;;;;;;;;;;351322;28;944;-65
2022/10/29 00:58:20;;;;;;;;;;;;;;;;;;351264;28;984;-65
2022/10/29 00:58:31;;;;;;;;;;;;;;;;;;351281;28;925;-65
2022/10/29 00:58:41;;;;;;;;;;;;;;;;;;351370;28;968;-65
2022/10/29 00:58:52;;;;;;;;;;;;;;;;;;351314;28;949;-65
2022/10/29 00:59:03;;;;;;;;;;;;;;;;;;351333;28;996;-65
2022/10/29 00:59:14;;;;;;;;;;;;;;;;;;351270;28;1067;-65
2022/10/29 00:59:25;;;;;;;;;;;;;;;;;;351461;28;833;-65
2022/10/29 00:59:35;;;;;;;;;;;;;;;;;;351288;28;929;-65
2022/10/29 00:59:47;;;;;;;;;;;;;;;;;;351355;28;783;-66
2022/10/29 00:59:57;;;;;;;;;;;;;;;;;;351340;28;916;-66
2022/10/29 01:00:07;;;;;;;;;;;;;;;;;;351337;28;916;-65
2022/10/29 01:00:19;;;;;;;;;;;;;;;;;;351250;28;1038;-65
2022/10/29 01:00:29;;;;;;;;;;;;;;;;;;351275;28;892;-65
2022/10/29 01:00:39;;;;;;;;;;;;;;;;;;351229;28;928;-66
2022/10/29 01:00:49;;;;;;;;;;;;;;;;;;351319;28;1175;-65
2022/10/29 01:01:00;;;;;;;;;;;;;;;;;;351338;28;936;-65
2022/10/29 01:01:10;;;;;;;;;;;;;;;;;;351339;28;845;-65
2022/10/29 01:01:20;;;;;;;;;;;;;;;;;;351339;28;857;-65
2022/10/29 01:01:30;;;;;;;;;;;;;;;;;;351296;28;778;-65
2022/10/29 01:01:41;;;;;;;;;;;;;;;;;;351327;28;913;-65
2022/10/29 01:01:52;;;;;;;;;;;;;;;;;;351366;28;790;-65
2022/10/29 01:02:02;;;;;;;;;;;;;;;;;;351345;28;928;-65
2022/10/29 01:02:13;;;;;;;;;;;;;;;;;;351325;28;857;-65
2022/10/29 01:02:24;;;;;;;;;;;;;;;;;;351362;28;802;-65
2022/10/29 01:02:36;;;;;;;;;;;;;;;;;;351372;28;794;-65
2022/10/29 01:02:47;;;;;;;;;;;;;;;;;;351296;28;878;-65
2022/10/29 01:02:57;;;;;;;;;;;;;;;;;;351270;28;990;-65
2022/10/29 01:03:07;;;;;;;;;;;;;;;;;;351359;28;848;-65
2022/10/29 01:03:17;;;;;;;;;;;;;;;;;;351335;28;921;-65
2022/10/29 01:03:28;;;;;;;;;;;;;;;;;;351306;28;972;-65
2022/10/29 01:03:41;;;;;;;;;;;;;;;;;;351276;28;958;-65
2022/10/29 01:03:51;;;;;;;;;;;;;;;;;;351345;28;897;-65
2022/10/29 01:04:02;;;;;;;;;;;;;;;;;;351324;28;932;-65
2022/10/29 01:04:13;;;;;;;;;;;;;;;;;;351340;28;817;-65
2022/10/29 01:04:24;;;;;;;;;;;;;;;;;;351288;28;1035;-65
2022/10/29 01:04:35;;;;;;;;;;;;;;;;;;351268;28;980;-65
2022/10/29 01:04:45;;;;;;;;;;;;;;;;;;351348;28;944;-65
2022/10/29 01:04:56;;;;;;;;;;;;;;;;;;351334;28;877;-65
2022/10/29 01:05:06;;;;;;;;;;;;;;;;;;351283;28;976;-66
2022/10/29 01:05:20;;;;;;;;;;;;;;;;;;351340;28;971;-65
2022/10/29 01:05:32;;;;;;;;;;;;;;;;;;351293;28;909;-65
2022/10/29 01:05:43;;;;;;;;;;;;;;;;;;351345;28;940;-65
2022/10/29 01:05:53;;;;;;;;;;;;;;;;;;351374;28;786;-65
2022/10/29 01:06:04;;;;;;;;;;;;;;;;;;351267;28;893;-66
2022/10/29 01:06:14;;;;;;;;;;;;;;;;;;351285;28;1005;-65
2022/10/29 01:06:25;;;;;;;;;;;;;;;;;;351318;28;936;-66
2022/10/29 01:06:36;;;;;;;;;;;;;;;;;;351347;28;774;-65
2022/10/29 01:06:46;;;;;;;;;;;;;;;;;;351394;28;980;-65
2022/10/29 01:06:57;;;;;;;;;;;;;;;;;;351217;28;971;-65
2022/10/29 01:07:07;;;;;;;;;;;;;;;;;;351367;28;853;-65
2022/10/29 01:07:19;;;;;;;;;;;;;;;;;;351314;28;960;-65
2022/10/29 01:07:29;;;;;;;;;;;;;;;;;;351315;28;845;-65
2022/10/29 01:07:40;;;;;;;;;;;;;;;;;;351258;28;1024;-65
2022/10/29 01:07:50;;;;;;;;;;;;;;;;;;351272;28;1047;-65
2022/10/29 01:08:00;;;;;;;;;;;;;;;;;;351303;28;917;-65
2022/10/29 01:08:12;;;;;;;;;;;;;;;;;;351371;28;928;-65
2022/10/29 01:08:22;;;;;;;;;;;;;;;;;;351333;28;920;-65
2022/10/29 01:08:32;;;;;;;;;;;;;;;;;;351297;28;1047;-65
2022/10/29 01:08:42;;;;;;;;;;;;;;;;;;351304;28;909;-65
2022/10/29 01:08:52;;;;;;;;;;;;;;;;;;351286;28;1003;-66
2022/10/29 01:09:03;;;;;;;;;;;;;;;;;;351315;28;790;-65
2022/10/29 01:09:13;;;;;;;;;;;;;;;;;;351341;28;850;-65
2022/10/29 01:09:23;;;;;;;;;;;;;;;;;;351375;28;916;-65
2022/10/29 01:09:33;;;;;;;;;;;;;;;;;;351248;28;988;-65
2022/10/29 01:09:44;;;;;;;;;;;;;;;;;;351338;28;1038;-65
2022/10/29 01:09:54;;;;;;;;;;;;;;;;;;351340;28;988;-65
2022/10/29 01:10:04;;;;;;;;;;;;;;;;;;351382;28;853;-65
2022/10/29 01:10:15;;;;;;;;;;;;;;;;;;351249;28;1023;-65
2022/10/29 01:10:40;;;;;;;;;;;;;;;;;;351353;28;822;-65
2022/10/29 01:11:03;;;;;;;;;;;;;;;;;;351319;28;1071;-65
2022/10/29 01:11:13;;;;;;;;;;;;;;;;;;350433;28;1407;-65
2022/10/29 01:11:42;;;;;;;;;;;;;;;;;;350556;28;1788;-65
2022/10/29 01:11:55;;;;;;;;;;;;;;;;;;351250;28;980;-66
2022/10/29 01:12:20;;;;;;;;;;;;;;;;;;351371;28;853;-65
2022/10/29 01:12:33;;;;;;;;;;;;;;;;;;351264;28;928;-66
2022/10/29 01:12:52;;;;;;;;;;;;;;;;;;351328;28;920;-65
2022/10/29 01:13:09;;;;;;;;;;;;;;;;;;351330;28;955;-65
2022/10/29 01:13:25;;;;;;;;;;;;;;;;;;351347;28;864;-65
2022/10/29 01:13:54;;;;;;;;;;;;;;;;;;351293;28;1019;-65
2022/10/29 01:14:13;;;;;;;;;;;;;;;;;;351255;28;905;-65
2022/10/29 01:14:31;;;;;;;;;;;;;;;;;;351336;28;925;-66
2022/10/29 01:14:56;;;;;;;;;;;;;;;;;;351268;28;912;-65
2022/10/29 01:15:11;;;;;;;;;;;;;;;;;;351322;28;853;-65
2022/10/29 01:15:27;;;;;;;;;;;;;;;;;;351293;28;992;-65
2022/10/29 01:16:13;;;;;;;;;;;;;;;;;;351263;28;984;-65
2022/10/29 01:16:23;;;;;;;;;;;;;;;;;;347049;28;1016;-65
2022/10/29 01:16:33;;;;;;;;;;;;;;;;;;346985;28;819;-65
2022/10/29 01:16:49;;;;;;;;;;;;;;;;;;346954;28;1411;-65
2022/10/29 01:17:11;;;;;;;;;;;;;;;;;;347000;28;1028;-65
2022/10/29 01:17:27;;;;;;;;;;;;;;;;;;346991;28;842;-65
2022/10/29 01:17:37;;;;;;;;;;;;;;;;;;347364;28;886;-65
2022/10/29 01:18:02;;;;;;;;;;;;;;;;;;347235;28;905;-65
2022/10/29 01:18:19;;;;;;;;;;;;;;;;;;347317;28;984;-65
2022/10/29 01:18:48;;;;;;;;;;;;;;;;;;347229;28;1064;-65
2022/10/29 01:19:08;;;;;;;;;;;;;;;;;;347255;28;961;-65
2022/10/29 01:19:24;;;;;;;;;;;;;;;;;;350648;28;981;-65
2022/10/29 01:19:52;;;;;;;;;;;;;;;;;;352291;28;1410;-65
2022/10/29 01:20:24;;;;;;;;;;;;;;;;;;352902;28;1020;-65
2022/10/29 01:20:45;;;;;;;;;;;;;;;;;;352915;28;1036;-65
2022/10/29 01:21:02;;;;;;;;;;;;;;;;;;353008;28;912;-65
2022/10/29 01:21:33;;;;;;;;;;;;;;;;;;352953;28;921;-65
2022/10/29 01:21:45;;;;;;;;;;;;;;;;;;352960;28;905;-65
2022/10/29 01:22:00;;;;;;;;;;;;;;;;;;352984;28;747;-65
2022/10/29 01:22:10;;;;;;;;;;;;;;;;;;352989;28;830;-65
2022/10/29 01:22:38;;;;;;;;;;;;;;;;;;352946;28;858;-65
2022/10/29 01:22:59;;;;;;;;;;;;;;;;;;352977;28;970;-65
2022/10/29 01:23:33;;;;;;;;;;;;;;;;;;352981;28;983;-65
2022/10/29 01:23:59;;;;;;;;;;;;;;;;;;352345;28;1995;-66
2022/10/29 01:24:09;;;;;;;;;;;;;;;;;;350209;28;956;-66
2022/10/29 01:24:38;;;;;;;;;;;;;;;;;;350174;28;901;-65
2022/10/29 01:25:06;;;;;;;;;;;;;;;;;;350195;28;853;-65
2022/10/29 01:25:22;;;;;;;;;;;;;;;;;;350161;28;929;-66
2022/10/29 01:25:38;;;;;;;;;;;;;;;;;;350152;28;1070;-65
2022/10/29 01:26:00;;;;;;;;;;;;;;;;;;351428;28;1178;-65